»·PEaware :: N6218B S21-KYKM

N6218B :: S21-KYKM

FLIGHT INFORMATION

Flight Status: Arrived
Operator: Privately registered:
United States
More flights under this callsign
Pilot: Anonymous 16594 (16594)
Aircraft: CESSNA 182 SKYLANE
(C182)
More flights by this aircraft type
Origin: S21 Sunriver
United States
Destination: KYKM Yakima Air Term/Mcallister
United States
More flights between these airports :: More routes between these airports
Route: DSD V25 YKM
File this flight plan on PilotEdge
Remarks:
Altitude:
(Current/Filed)
10,000ft
Speed:
(Current/Filed)
140kts
Departed: 29-Jan-18 03:42 PM
Arrived: 29-Jan-18 04:49 PM
Distance/Time
Traveled:
166nm/1:06
Distance/Time
To Go:
Arrived

Flight Plot

Page will automatically refresh every two minutes.

Flight plan parsing failed; only flown route is shown


Map Options




Map Legend


Flown Route
Filed Route
Departure Airport
Arrival Airport
Navaid (VOR, NDB)
Fix

Horizontal Profiles

Position Reports

Time Latitude Longitude Heading Altitude Ground
Speed
29-Jan-18 15:25 43.876646 -121.453835 106 4167ft 0kts
29-Jan-18 15:26 43.876646 -121.453835 106 4167ft 0kts
29-Jan-18 15:27 43.876646 -121.453835 106 4167ft 0kts
29-Jan-18 15:28 43.876645 -121.453831 106 4167ft 0kts
29-Jan-18 15:29 43.876644 -121.453826 106 4167ft 0kts
29-Jan-18 15:30 43.876643 -121.453820 106 4167ft 0kts
29-Jan-18 15:31 43.876641 -121.453814 106 4167ft 0kts
29-Jan-18 15:32 43.876640 -121.453808 106 4167ft 0kts
29-Jan-18 15:33 43.876639 -121.453803 106 4167ft 0kts
29-Jan-18 15:34 43.876638 -121.453797 106 4167ft 0kts
29-Jan-18 15:35 43.876606 -121.453645 103 4167ft 4kts
29-Jan-18 15:36 43.878528 -121.452814 15 4167ft 0kts
29-Jan-18 15:37 43.878528 -121.452814 15 4167ft 0kts
29-Jan-18 15:38 43.878670 -121.452762 15 4167ft 0kts
29-Jan-18 15:39 43.879889 -121.452297 14 4167ft 0kts
29-Jan-18 15:40 43.880226 -121.452163 15 4167ft 7kts
29-Jan-18 15:46 43.880426 -121.451780 142 4167ft 0kts
29-Jan-18 15:47 43.880361 -121.451688 127 4167ft 6kts
29-Jan-18 15:48 43.867595 -121.456655 187 4396ft 76kts
29-Jan-18 15:49 43.845579 -121.457471 162 4985ft 89kts
29-Jan-18 15:50 43.824228 -121.450997 161 5559ft 85kts
29-Jan-18 15:51 43.827555 -121.427981 18 6159ft 91kts
29-Jan-18 15:52 43.851037 -121.416037 28 6509ft 107kts
29-Jan-18 15:53 43.883458 -121.396682 19 6819ft 135kts
29-Jan-18 15:54 43.916979 -121.408847 325 7311ft 125kts
29-Jan-18 15:55 43.952310 -121.408962 5 7820ft 133kts
29-Jan-18 15:56 43.988473 -121.398370 5 8330ft 132kts
29-Jan-18 15:57 44.024171 -121.386454 6 8830ft 132kts
29-Jan-18 15:58 44.059707 -121.374221 353 9329ft 127kts
29-Jan-18 15:59 44.094646 -121.366512 3 9830ft 129kts
29-Jan-18 16:00 44.131811 -121.351880 6 9979ft 152kts
29-Jan-18 16:01 44.174732 -121.334710 7 9990ft 165kts
29-Jan-18 16:02 44.219249 -121.316912 7 10020ft 168kts
29-Jan-18 16:03 44.264689 -121.301741 354 10005ft 165kts
29-Jan-18 16:04 44.310843 -121.295638 355 10000ft 166kts
29-Jan-18 16:05 44.356793 -121.289418 355 10002ft 165kts
29-Jan-18 16:06 44.402898 -121.283152 355 10000ft 166kts
29-Jan-18 16:07 44.448908 -121.276889 355 9999ft 166kts
29-Jan-18 16:08 44.494884 -121.270625 355 9999ft 166kts
29-Jan-18 16:09 44.541023 -121.264326 355 9998ft 166kts
29-Jan-18 16:10 44.587106 -121.258016 355 9997ft 166kts
29-Jan-18 16:11 44.633261 -121.251696 355 9994ft 166kts
29-Jan-18 16:12 44.679333 -121.245383 355 9993ft 166kts
29-Jan-18 16:13 44.725531 -121.239050 355 9991ft 167kts
29-Jan-18 16:14 44.772047 -121.232651 355 9989ft 167kts
29-Jan-18 16:15 44.818524 -121.226254 355 9987ft 168kts
29-Jan-18 16:16 44.865056 -121.219838 355 9985ft 168kts
29-Jan-18 16:17 44.911876 -121.213373 354 9984ft 168kts
29-Jan-18 16:18 44.958620 -121.206904 354 9981ft 169kts
29-Jan-18 16:19 45.005341 -121.200425 354 9979ft 168kts
29-Jan-18 16:20 45.052244 -121.193910 354 9983ft 169kts
29-Jan-18 16:21 45.099092 -121.187388 352 9980ft 169kts
29-Jan-18 16:22 45.146844 -121.180747 349 9972ft 173kts
29-Jan-18 16:23 45.194978 -121.174013 349 9971ft 174kts
29-Jan-18 16:24 45.243279 -121.167246 349 9968ft 174kts
29-Jan-18 16:25 45.291858 -121.160436 349 9962ft 175kts
29-Jan-18 16:26 45.340310 -121.153630 349 9961ft 175kts
29-Jan-18 16:27 45.388872 -121.146801 349 9960ft 175kts
29-Jan-18 16:28 45.437743 -121.139916 349 9960ft 176kts
29-Jan-18 16:29 45.486553 -121.133018 349 9960ft 176kts
29-Jan-18 16:30 45.535510 -121.126092 349 9960ft 176kts
29-Jan-18 16:31 45.584342 -121.119169 349 9960ft 176kts
29-Jan-18 16:32 45.633176 -121.112234 349 9958ft 176kts
29-Jan-18 16:33 45.682144 -121.105270 349 9959ft 176kts
29-Jan-18 16:34 45.730751 -121.089337 20 9958ft 193kts
29-Jan-18 16:35 45.777948 -121.052508 18 9956ft 193kts
29-Jan-18 16:36 45.825567 -121.016358 18 9952ft 193kts
29-Jan-18 16:37 45.873159 -120.980293 18 9947ft 193kts
29-Jan-18 16:38 45.920375 -120.944461 17 10030ft 189kts
29-Jan-18 16:39 45.967351 -120.908809 18 10032ft 192kts
29-Jan-18 16:40 46.014857 -120.872666 19 10027ft 196kts
29-Jan-18 16:41 46.063816 -120.835287 19 10015ft 197kts
29-Jan-18 16:42 46.111696 -120.798707 19 10009ft 194kts
29-Jan-18 16:43 46.159641 -120.762010 19 10005ft 193kts
29-Jan-18 16:44 46.207143 -120.725569 19 10000ft 193kts
29-Jan-18 16:45 46.254591 -120.689095 19 9996ft 193kts
29-Jan-18 16:46 46.302664 -120.652664 16 9579ft 194kts
29-Jan-18 16:47 46.347335 -120.621409 17 8541ft 168kts
29-Jan-18 16:48 46.389138 -120.593514 18 7055ft 161kts
29-Jan-18 16:49 46.429756 -120.568790 18 5352ft 153kts
29-Jan-18 16:50 46.467055 -120.548367 18 3983ft 121kts
29-Jan-18 16:51 46.497622 -120.532243 17 3719ft 115kts
29-Jan-18 16:52 46.523113 -120.521779 8 3099ft 77kts
29-Jan-18 16:53 46.542524 -120.515728 43 2328ft 72kts
29-Jan-18 16:54 46.559681 -120.514476 321 1548ft 70kts
29-Jan-18 16:55 46.566698 -120.536173 289 1058ft 29kts
29-Jan-18 16:56 46.568192 -120.539984 61 1058ft 6kts
29-Jan-18 16:57 46.568295 -120.539720 57 1058ft 1kts
29-Jan-18 16:58 46.569227 -120.541716 289 1058ft 13kts
29-Jan-18 16:59 46.570495 -120.542589 355 1058ft 0kts
29-Jan-18 17:00 46.570495 -120.542589 355 1058ft 0kts

Navigation Log

Ident Type
Flight plan parsing failed, navigation log unavailable